sensor_id;sensor_type;location;lat;lon;timestamp;temperature;humidity
74822;DHT22;63353;48.702;8.884;2024-03-08T00:00:22;1.20;99.90
74822;DHT22;63353;48.702;8.884;2024-03-08T00:02:48;1.10;99.90
74822;DHT22;63353;48.702;8.884;2024-03-08T00:05:16;1.10;99.90
74822;DHT22;63353;48.702;8.884;2024-03-08T00:07:43;1.00;99.90
74822;DHT22;63353;48.702;8.884;2024-03-08T00:10:11;1.10;99.90
74822;DHT22;63353;48.702;8.884;2024-03-08T00:12:38;1.10;99.90
74822;DHT22;63353;48.702;8.884;2024-03-08T00:15:04;1.00;99.90
74822;DHT22;63353;48.702;8.884;2024-03-08T00:17:32;0.90;99.90
74822;DHT22;63353;48.702;8.884;2024-03-08T00:19:57;1.00;99.90
74822;DHT22;63353;48.702;8.884;2024-03-08T00:22:23;1.00;99.90
74822;DHT22;63353;48.702;8.884;2024-03-08T00:24:50;1.00;99.90
74822;DHT22;63353;48.702;8.884;2024-03-08T00:27:18;1.00;99.90
74822;DHT22;63353;48.702;8.884;2024-03-08T00:29:46;0.90;99.90
74822;DHT22;63353;48.702;8.884;2024-03-08T00:32:12;0.80;99.90
74822;DHT22;63353;48.702;8.884;2024-03-08T00:34:38;0.80;99.90
74822;DHT22;63353;48.702;8.884;2024-03-08T00:37:04;0.80;99.90
74822;DHT22;63353;48.702;8.884;2024-03-08T00:39:29;0.80;99.90
74822;DHT22;63353;48.702;8.884;2024-03-08T00:41:55;0.70;99.90
74822;DHT22;63353;48.702;8.884;2024-03-08T00:44:22;0.60;99.90
74822;DHT22;63353;48.702;8.884;2024-03-08T00:46:49;0.60;99.90
74822;DHT22;63353;48.702;8.884;2024-03-08T00:49:17;0.50;99.90
74822;DHT22;63353;48.702;8.884;2024-03-08T00:51:43;0.50;99.90
74822;DHT22;63353;48.702;8.884;2024-03-08T00:54:09;0.40;99.90
74822;DHT22;63353;48.702;8.884;2024-03-08T00:56:34;0.30;99.90
74822;DHT22;63353;48.702;8.884;2024-03-08T00:59:01;0.20;99.90
74822;DHT22;63353;48.702;8.884;2024-03-08T01:01:28;0.20;99.90
74822;DHT22;63353;48.702;8.884;2024-03-08T01:03:54;0.20;99.90
74822;DHT22;63353;48.702;8.884;2024-03-08T01:06:19;0.20;99.90
74822;DHT22;63353;48.702;8.884;2024-03-08T01:08:46;0.20;99.90
74822;DHT22;63353;48.702;8.884;2024-03-08T01:11:13;0.20;99.90
74822;DHT22;63353;48.702;8.884;2024-03-08T01:13:39;0.10;99.90
74822;DHT22;63353;48.702;8.884;2024-03-08T01:16:05;0.10;99.90
74822;DHT22;63353;48.702;8.884;2024-03-08T01:18:31;0.00;99.90
74822;DHT22;63353;48.702;8.884;2024-03-08T01:20:56;0.00;99.90
74822;DHT22;63353;48.702;8.884;2024-03-08T01:23:22;0.00;99.90
74822;DHT22;63353;48.702;8.884;2024-03-08T01:25:48;-0.10;99.90
74822;DHT22;63353;48.702;8.884;2024-03-08T01:28:15;-0.20;99.90
74822;DHT22;63353;48.702;8.884;2024-03-08T01:30:41;-0.20;99.90
74822;DHT22;63353;48.702;8.884;2024-03-08T01:33:08;-0.30;99.90
74822;DHT22;63353;48.702;8.884;2024-03-08T01:35:35;-0.30;99.90
74822;DHT22;63353;48.702;8.884;2024-03-08T01:38:01;-0.40;99.90
74822;DHT22;63353;48.702;8.884;2024-03-08T01:40:26;-0.30;99.90
74822;DHT22;63353;48.702;8.884;2024-03-08T01:42:52;-0.50;99.90
74822;DHT22;63353;48.702;8.884;2024-03-08T01:45:19;-0.50;99.90
74822;DHT22;63353;48.702;8.884;2024-03-08T01:47:44;-0.60;99.90
74822;DHT22;63353;48.702;8.884;2024-03-08T01:50:14;-0.50;99.90
74822;DHT22;63353;48.702;8.884;2024-03-08T01:52:42;-0.60;99.90
74822;DHT22;63353;48.702;8.884;2024-03-08T01:55:09;-0.70;99.90
74822;DHT22;63353;48.702;8.884;2024-03-08T01:57:35;-0.80;99.90
74822;DHT22;63353;48.702;8.884;2024-03-08T02:00:04;-0.80;99.90
74822;DHT22;63353;48.702;8.884;2024-03-08T02:02:32;-0.80;99.90
74822;DHT22;63353;48.702;8.884;2024-03-08T02:04:58;-0.80;99.90
74822;DHT22;63353;48.702;8.884;2024-03-08T02:07:23;-0.80;99.90
74822;DHT22;63353;48.702;8.884;2024-03-08T02:09:49;-0.80;99.90
74822;DHT22;63353;48.702;8.884;2024-03-08T02:12:16;-0.80;99.90
74822;DHT22;63353;48.702;8.884;2024-03-08T02:14:42;-0.80;99.90
74822;DHT22;63353;48.702;8.884;2024-03-08T02:17:09;-0.90;99.90
74822;DHT22;63353;48.702;8.884;2024-03-08T02:19:34;-0.90;99.90
74822;DHT22;63353;48.702;8.884;2024-03-08T02:22:01;-1.00;99.90
74822;DHT22;63353;48.702;8.884;2024-03-08T02:24:29;-1.10;99.90
74822;DHT22;63353;48.702;8.884;2024-03-08T02:26:55;-1.10;99.90
74822;DHT22;63353;48.702;8.884;2024-03-08T02:29:23;-1.20;99.90
74822;DHT22;63353;48.702;8.884;2024-03-08T02:31:52;-1.20;99.90
74822;DHT22;63353;48.702;8.884;2024-03-08T02:34:19;-1.30;99.90
74822;DHT22;63353;48.702;8.884;2024-03-08T02:36:45;-1.40;99.90
74822;DHT22;63353;48.702;8.884;2024-03-08T02:39:13;-1.40;99.90
74822;DHT22;63353;48.702;8.884;2024-03-08T02:41:39;-1.20;99.90
74822;DHT22;63353;48.702;8.884;2024-03-08T02:44:04;-1.20;99.90
74822;DHT22;63353;48.702;8.884;2024-03-08T02:46:30;-1.20;99.90
74822;DHT22;63353;48.702;8.884;2024-03-08T02:48:56;-1.20;99.90
74822;DHT22;63353;48.702;8.884;2024-03-08T02:51:21;-1.20;99.90
74822;DHT22;63353;48.702;8.884;2024-03-08T02:53:47;-1.20;99.90
74822;DHT22;63353;48.702;8.884;2024-03-08T02:56:14;-1.30;99.90
74822;DHT22;63353;48.702;8.884;2024-03-08T02:58:42;-1.30;99.90
74822;DHT22;63353;48.702;8.884;2024-03-08T03:01:08;-1.30;99.90
74822;DHT22;63353;48.702;8.884;2024-03-08T03:03:35;-1.30;99.90
74822;DHT22;63353;48.702;8.884;2024-03-08T03:06:01;-1.30;99.90
74822;DHT22;63353;48.702;8.884;2024-03-08T03:08:27;-1.30;99.90
74822;DHT22;63353;48.702;8.884;2024-03-08T03:10:52;-1.40;99.90
74822;DHT22;63353;48.702;8.884;2024-03-08T03:13:18;-1.50;99.90
74822;DHT22;63353;48.702;8.884;2024-03-08T03:15:46;-1.40;99.90
74822;DHT22;63353;48.702;8.884;2024-03-08T03:18:12;-1.50;99.90
74822;DHT22;63353;48.702;8.884;2024-03-08T03:20:37;-1.50;99.90
74822;DHT22;63353;48.702;8.884;2024-03-08T03:23:08;-1.60;99.90
74822;DHT22;63353;48.702;8.884;2024-03-08T03:25:34;-1.70;99.90
74822;DHT22;63353;48.702;8.884;2024-03-08T03:28:04;-1.60;99.90
74822;DHT22;63353;48.702;8.884;2024-03-08T03:30:30;-1.70;99.90
74822;DHT22;63353;48.702;8.884;2024-03-08T03:33:02;-1.70;99.90
74822;DHT22;63353;48.702;8.884;2024-03-08T03:35:32;-1.80;99.90
74822;DHT22;63353;48.702;8.884;2024-03-08T03:37:58;-1.80;99.90
74822;DHT22;63353;48.702;8.884;2024-03-08T03:40:29;-1.80;99.90
74822;DHT22;63353;48.702;8.884;2024-03-08T03:42:55;-1.80;99.90
74822;DHT22;63353;48.702;8.884;2024-03-08T03:45:21;-1.80;99.90
74822;DHT22;63353;48.702;8.884;2024-03-08T03:47:47;-1.80;99.90
74822;DHT22;63353;48.702;8.884;2024-03-08T03:50:13;-1.90;99.90
74822;DHT22;63353;48.702;8.884;2024-03-08T03:52:38;-1.80;99.90
74822;DHT22;63353;48.702;8.884;2024-03-08T03:55:04;-1.80;99.90
74822;DHT22;63353;48.702;8.884;2024-03-08T03:57:30;-1.80;99.90
74822;DHT22;63353;48.702;8.884;2024-03-08T03:59:57;-1.90;99.90
74822;DHT22;63353;48.702;8.884;2024-03-08T04:02:24;-1.90;99.90
74822;DHT22;63353;48.702;8.884;2024-03-08T04:04:54;-1.90;99.90
74822;DHT22;63353;48.702;8.884;2024-03-08T04:07:20;-1.80;99.90
74822;DHT22;63353;48.702;8.884;2024-03-08T04:09:46;-1.80;99.90
74822;DHT22;63353;48.702;8.884;2024-03-08T04:12:12;-1.90;99.90
74822;DHT22;63353;48.702;8.884;2024-03-08T04:14:40;-1.90;99.90
74822;DHT22;63353;48.702;8.884;2024-03-08T04:17:06;-1.90;99.90
74822;DHT22;63353;48.702;8.884;2024-03-08T04:19:34;-1.90;99.90
74822;DHT22;63353;48.702;8.884;2024-03-08T04:22:00;-1.90;99.90
74822;DHT22;63353;48.702;8.884;2024-03-08T04:24:26;-2.00;99.90
74822;DHT22;63353;48.702;8.884;2024-03-08T04:26:52;-2.10;99.90
74822;DHT22;63353;48.702;8.884;2024-03-08T04:29:18;-2.10;99.90
74822;DHT22;63353;48.702;8.884;2024-03-08T04:31:44;-2.20;99.90
74822;DHT22;63353;48.702;8.884;2024-03-08T04:34:10;-2.20;99.90
74822;DHT22;63353;48.702;8.884;2024-03-08T04:36:36;-2.20;99.90
74822;DHT22;63353;48.702;8.884;2024-03-08T04:39:03;-2.20;99.90
74822;DHT22;63353;48.702;8.884;2024-03-08T04:41:29;-2.30;99.90
74822;DHT22;63353;48.702;8.884;2024-03-08T04:43:56;-2.30;99.90
74822;DHT22;63353;48.702;8.884;2024-03-08T04:46:23;-2.30;99.90
74822;DHT22;63353;48.702;8.884;2024-03-08T04:48:49;-2.40;99.90
74822;DHT22;63353;48.702;8.884;2024-03-08T04:51:15;-2.40;99.90
74822;DHT22;63353;48.702;8.884;2024-03-08T04:53:41;-2.40;99.90
74822;DHT22;63353;48.702;8.884;2024-03-08T04:56:08;-2.30;99.90
74822;DHT22;63353;48.702;8.884;2024-03-08T04:58:37;-2.30;99.90
74822;DHT22;63353;48.702;8.884;2024-03-08T05:01:02;-2.40;99.90
74822;DHT22;63353;48.702;8.884;2024-03-08T05:03:28;-2.40;99.90
74822;DHT22;63353;48.702;8.884;2024-03-08T05:05:56;-2.40;99.90
74822;DHT22;63353;48.702;8.884;2024-03-08T05:08:21;-2.40;99.90
74822;DHT22;63353;48.702;8.884;2024-03-08T05:10:47;-2.40;99.90
74822;DHT22;63353;48.702;8.884;2024-03-08T05:13:13;-2.50;99.90
74822;DHT22;63353;48.702;8.884;2024-03-08T05:15:40;-2.50;99.90
74822;DHT22;63353;48.702;8.884;2024-03-08T05:18:06;-2.60;99.90
74822;DHT22;63353;48.702;8.884;2024-03-08T05:20:31;-2.60;99.90
74822;DHT22;63353;48.702;8.884;2024-03-08T05:22:57;-2.60;99.90
74822;DHT22;63353;48.702;8.884;2024-03-08T05:25:26;-2.60;99.90
74822;DHT22;63353;48.702;8.884;2024-03-08T05:27:52;-2.70;99.90
74822;DHT22;63353;48.702;8.884;2024-03-08T05:30:18;-2.70;99.90
74822;DHT22;63353;48.702;8.884;2024-03-08T05:32:44;-2.70;99.90
74822;DHT22;63353;48.702;8.884;2024-03-08T05:35:11;-2.70;99.90
74822;DHT22;63353;48.702;8.884;2024-03-08T05:37:38;-2.70;99.90
74822;DHT22;63353;48.702;8.884;2024-03-08T05:40:05;-2.70;99.90
74822;DHT22;63353;48.702;8.884;2024-03-08T05:42:35;-2.70;99.90
74822;DHT22;63353;48.702;8.884;2024-03-08T05:45:02;-2.80;99.90
74822;DHT22;63353;48.702;8.884;2024-03-08T05:47:28;-2.80;99.90
74822;DHT22;63353;48.702;8.884;2024-03-08T05:49:54;-2.80;99.90
74822;DHT22;63353;48.702;8.884;2024-03-08T05:52:20;-2.80;99.90
74822;DHT22;63353;48.702;8.884;2024-03-08T05:54:46;-2.80;99.90
74822;DHT22;63353;48.702;8.884;2024-03-08T05:57:13;-2.80;99.90
74822;DHT22;63353;48.702;8.884;2024-03-08T05:59:58;-2.80;99.90
74822;DHT22;63353;48.702;8.884;2024-03-08T06:02:24;-2.80;99.90
74822;DHT22;63353;48.702;8.884;2024-03-08T06:04:50;-2.70;99.90
74822;DHT22;63353;48.702;8.884;2024-03-08T06:07:15;-2.70;99.90
74822;DHT22;63353;48.702;8.884;2024-03-08T06:09:43;-2.60;99.90
74822;DHT22;63353;48.702;8.884;2024-03-08T06:12:11;-2.60;99.90
74822;DHT22;63353;48.702;8.884;2024-03-08T06:14:37;-2.60;99.90
74822;DHT22;63353;48.702;8.884;2024-03-08T06:17:03;-2.50;99.90
74822;DHT22;63353;48.702;8.884;2024-03-08T06:19:31;-2.50;99.90
74822;DHT22;63353;48.702;8.884;2024-03-08T06:21:57;-2.40;99.90
74822;DHT22;63353;48.702;8.884;2024-03-08T06:24:22;-2.30;99.90
74822;DHT22;63353;48.702;8.884;2024-03-08T06:26:48;-2.20;99.90
74822;DHT22;63353;48.702;8.884;2024-03-08T06:29:14;-2.10;99.90
74822;DHT22;63353;48.702;8.884;2024-03-08T06:31:42;-1.90;99.90
74822;DHT22;63353;48.702;8.884;2024-03-08T06:34:07;-1.80;99.90
74822;DHT22;63353;48.702;8.884;2024-03-08T06:36:35;-1.70;99.90
74822;DHT22;63353;48.702;8.884;2024-03-08T06:39:00;-1.60;99.90
74822;DHT22;63353;48.702;8.884;2024-03-08T06:41:26;-1.50;99.90
74822;DHT22;63353;48.702;8.884;2024-03-08T06:43:52;-1.40;99.90
74822;DHT22;63353;48.702;8.884;2024-03-08T06:46:23;-1.30;99.90
74822;DHT22;63353;48.702;8.884;2024-03-08T06:48:49;-1.10;99.90
74822;DHT22;63353;48.702;8.884;2024-03-08T06:51:14;-1.00;99.90
74822;DHT22;63353;48.702;8.884;2024-03-08T06:53:40;-1.00;99.90
74822;DHT22;63353;48.702;8.884;2024-03-08T06:56:06;-0.90;99.90
74822;DHT22;63353;48.702;8.884;2024-03-08T06:58:33;-0.70;99.90
74822;DHT22;63353;48.702;8.884;2024-03-08T07:00:59;-0.70;99.90
74822;DHT22;63353;48.702;8.884;2024-03-08T07:03:26;-0.60;99.90
74822;DHT22;63353;48.702;8.884;2024-03-08T07:05:52;-0.50;99.90
74822;DHT22;63353;48.702;8.884;2024-03-08T07:08:19;-0.40;99.90
74822;DHT22;63353;48.702;8.884;2024-03-08T07:10:47;-0.40;99.90
74822;DHT22;63353;48.702;8.884;2024-03-08T07:13:14;-0.30;99.90
74822;DHT22;63353;48.702;8.884;2024-03-08T07:15:41;-0.20;99.90
74822;DHT22;63353;48.702;8.884;2024-03-08T07:18:07;-0.20;99.90
74822;DHT22;63353;48.702;8.884;2024-03-08T07:20:34;-0.10;99.90
74822;DHT22;63353;48.702;8.884;2024-03-08T07:23:02;0.00;99.90
74822;DHT22;63353;48.702;8.884;2024-03-08T07:25:29;0.00;99.90
74822;DHT22;63353;48.702;8.884;2024-03-08T07:27:55;0.10;99.90
74822;DHT22;63353;48.702;8.884;2024-03-08T07:30:25;0.20;99.90
74822;DHT22;63353;48.702;8.884;2024-03-08T07:33:10;0.20;99.90
74822;DHT22;63353;48.702;8.884;2024-03-08T07:35:37;0.40;99.90
74822;DHT22;63353;48.702;8.884;2024-03-08T07:38:07;0.40;99.90
74822;DHT22;63353;48.702;8.884;2024-03-08T07:40:41;0.40;99.90
74822;DHT22;63353;48.702;8.884;2024-03-08T07:43:10;0.50;99.90
74822;DHT22;63353;48.702;8.884;2024-03-08T07:45:37;0.60;99.90
74822;DHT22;63353;48.702;8.884;2024-03-08T07:48:03;0.70;99.90
74822;DHT22;63353;48.702;8.884;2024-03-08T07:50:29;0.70;99.90
74822;DHT22;63353;48.702;8.884;2024-03-08T07:52:55;0.80;99.90
74822;DHT22;63353;48.702;8.884;2024-03-08T07:55:20;1.00;99.90
74822;DHT22;63353;48.702;8.884;2024-03-08T07:57:49;0.90;99.90
74822;DHT22;63353;48.702;8.884;2024-03-08T08:00:15;1.20;99.90
74822;DHT22;63353;48.702;8.884;2024-03-08T08:02:46;1.20;99.90
74822;DHT22;63353;48.702;8.884;2024-03-08T08:05:15;1.30;99.90
74822;DHT22;63353;48.702;8.884;2024-03-08T08:07:44;1.40;99.90
74822;DHT22;63353;48.702;8.884;2024-03-08T08:10:10;1.50;99.90
74822;DHT22;63353;48.702;8.884;2024-03-08T08:12:44;1.50;99.90
74822;DHT22;63353;48.702;8.884;2024-03-08T08:15:09;1.60;99.90
74822;DHT22;63353;48.702;8.884;2024-03-08T08:17:35;1.60;99.90
74822;DHT22;63353;48.702;8.884;2024-03-08T08:20:01;1.80;99.90
74822;DHT22;63353;48.702;8.884;2024-03-08T08:22:32;1.90;99.90
74822;DHT22;63353;48.702;8.884;2024-03-08T08:24:57;1.90;99.90
74822;DHT22;63353;48.702;8.884;2024-03-08T08:27:25;2.00;99.90
74822;DHT22;63353;48.702;8.884;2024-03-08T08:29:51;2.10;99.90
74822;DHT22;63353;48.702;8.884;2024-03-08T08:32:18;2.20;99.90
74822;DHT22;63353;48.702;8.884;2024-03-08T08:34:47;2.20;99.90
74822;DHT22;63353;48.702;8.884;2024-03-08T08:37:13;2.30;99.90
74822;DHT22;63353;48.702;8.884;2024-03-08T08:39:38;2.30;99.90
74822;DHT22;63353;48.702;8.884;2024-03-08T08:42:04;2.30;99.90
74822;DHT22;63353;48.702;8.884;2024-03-08T08:44:30;2.30;99.90
74822;DHT22;63353;48.702;8.884;2024-03-08T08:46:57;2.30;99.90
74822;DHT22;63353;48.702;8.884;2024-03-08T08:49:23;2.40;99.90
74822;DHT22;63353;48.702;8.884;2024-03-08T08:51:52;2.40;99.90
74822;DHT22;63353;48.702;8.884;2024-03-08T08:54:18;2.30;99.90
74822;DHT22;63353;48.702;8.884;2024-03-08T08:56:44;2.30;99.90
74822;DHT22;63353;48.702;8.884;2024-03-08T08:59:10;2.40;99.90
74822;DHT22;63353;48.702;8.884;2024-03-08T09:01:39;2.30;99.90
74822;DHT22;63353;48.702;8.884;2024-03-08T09:04:05;2.50;99.90
74822;DHT22;63353;48.702;8.884;2024-03-08T09:06:31;2.60;99.90
74822;DHT22;63353;48.702;8.884;2024-03-08T09:08:57;2.60;99.90
74822;DHT22;63353;48.702;8.884;2024-03-08T09:11:23;2.70;99.90
74822;DHT22;63353;48.702;8.884;2024-03-08T09:13:50;2.70;99.90
74822;DHT22;63353;48.702;8.884;2024-03-08T09:16:16;2.70;99.90
74822;DHT22;63353;48.702;8.884;2024-03-08T09:18:42;2.70;99.90
74822;DHT22;63353;48.702;8.884;2024-03-08T09:21:09;2.70;99.90
74822;DHT22;63353;48.702;8.884;2024-03-08T09:23:36;2.70;99.90
74822;DHT22;63353;48.702;8.884;2024-03-08T09:26:02;2.70;99.90
74822;DHT22;63353;48.702;8.884;2024-03-08T09:28:29;2.70;99.90
74822;DHT22;63353;48.702;8.884;2024-03-08T09:30:55;2.80;99.90
74822;DHT22;63353;48.702;8.884;2024-03-08T09:33:21;2.90;99.90
74822;DHT22;63353;48.702;8.884;2024-03-08T09:35:47;3.00;99.90
74822;DHT22;63353;48.702;8.884;2024-03-08T09:38:14;3.10;99.90
74822;DHT22;63353;48.702;8.884;2024-03-08T09:40:44;3.10;99.90
74822;DHT22;63353;48.702;8.884;2024-03-08T09:43:11;3.20;99.90
74822;DHT22;63353;48.702;8.884;2024-03-08T09:45:40;3.20;99.90
74822;DHT22;63353;48.702;8.884;2024-03-08T09:48:10;3.20;99.90
74822;DHT22;63353;48.702;8.884;2024-03-08T09:50:42;3.30;99.90
74822;DHT22;63353;48.702;8.884;2024-03-08T09:53:11;3.30;99.90
74822;DHT22;63353;48.702;8.884;2024-03-08T09:55:38;3.50;99.90
74822;DHT22;63353;48.702;8.884;2024-03-08T09:58:08;3.50;99.90
74822;DHT22;63353;48.702;8.884;2024-03-08T10:00:54;3.60;99.90
74822;DHT22;63353;48.702;8.884;2024-03-08T10:03:20;3.50;99.90
74822;DHT22;63353;48.702;8.884;2024-03-08T10:05:46;3.70;99.90
74822;DHT22;63353;48.702;8.884;2024-03-08T10:08:12;3.70;99.90
74822;DHT22;63353;48.702;8.884;2024-03-08T10:10:39;3.70;99.90
74822;DHT22;63353;48.702;8.884;2024-03-08T10:13:08;3.70;99.90
74822;DHT22;63353;48.702;8.884;2024-03-08T10:15:35;3.80;99.90
74822;DHT22;63353;48.702;8.884;2024-03-08T10:18:02;3.80;99.90
74822;DHT22;63353;48.702;8.884;2024-03-08T10:20:32;3.80;99.90
74822;DHT22;63353;48.702;8.884;2024-03-08T10:23:02;3.70;99.90
74822;DHT22;63353;48.702;8.884;2024-03-08T10:25:34;3.80;99.90
74822;DHT22;63353;48.702;8.884;2024-03-08T10:27:59;3.70;99.90
74822;DHT22;63353;48.702;8.884;2024-03-08T10:30:25;3.80;99.90
74822;DHT22;63353;48.702;8.884;2024-03-08T10:32:52;3.80;99.90
74822;DHT22;63353;48.702;8.884;2024-03-08T10:35:18;3.90;99.90
74822;DHT22;63353;48.702;8.884;2024-03-08T10:37:50;3.90;99.90
74822;DHT22;63353;48.702;8.884;2024-03-08T10:40:25;3.80;99.90
74822;DHT22;63353;48.702;8.884;2024-03-08T10:45:40;3.90;99.90
74822;DHT22;63353;48.702;8.884;2024-03-08T10:50:53;4.00;99.90
74822;DHT22;63353;48.702;8.884;2024-03-08T10:53:19;4.10;99.90
74822;DHT22;63353;48.702;8.884;2024-03-08T10:55:49;4.20;99.90
74822;DHT22;63353;48.702;8.884;2024-03-08T10:58:24;4.30;99.90
74822;DHT22;63353;48.702;8.884;2024-03-08T11:00:57;4.40;99.90
74822;DHT22;63353;48.702;8.884;2024-03-08T11:08:41;4.80;99.90
74822;DHT22;63353;48.702;8.884;2024-03-08T11:11:27;4.80;99.90
74822;DHT22;63353;48.702;8.884;2024-03-08T11:13:53;4.90;99.90
74822;DHT22;63353;48.702;8.884;2024-03-08T11:18:53;5.00;99.90
74822;DHT22;63353;48.702;8.884;2024-03-08T11:21:19;5.00;99.90
74822;DHT22;63353;48.702;8.884;2024-03-08T11:24:07;4.90;99.90
74822;DHT22;63353;48.702;8.884;2024-03-08T11:26:34;5.00;99.90
74822;DHT22;63353;48.702;8.884;2024-03-08T11:32:14;5.20;99.90
74822;DHT22;63353;48.702;8.884;2024-03-08T11:34:47;5.40;99.90
74822;DHT22;63353;48.702;8.884;2024-03-08T11:37:14;5.60;99.90
74822;DHT22;63353;48.702;8.884;2024-03-08T11:39:53;5.70;99.90
74822;DHT22;63353;48.702;8.884;2024-03-08T11:42:25;5.90;99.90
74822;DHT22;63353;48.702;8.884;2024-03-08T11:44:52;6.00;99.90
74822;DHT22;63353;48.702;8.884;2024-03-08T11:47:18;6.20;99.90
74822;DHT22;63353;48.702;8.884;2024-03-08T11:49:44;6.30;99.90
74822;DHT22;63353;48.702;8.884;2024-03-08T11:52:12;6.30;99.90
74822;DHT22;63353;48.702;8.884;2024-03-08T11:54:47;6.30;99.90
74822;DHT22;63353;48.702;8.884;2024-03-08T11:57:18;6.30;99.90
74822;DHT22;63353;48.702;8.884;2024-03-08T11:59:52;6.70;99.90
74822;DHT22;63353;48.702;8.884;2024-03-08T12:02:18;7.10;99.90
74822;DHT22;63353;48.702;8.884;2024-03-08T12:04:45;7.60;99.90
74822;DHT22;63353;48.702;8.884;2024-03-08T12:07:13;8.00;99.90
74822;DHT22;63353;48.702;8.884;2024-03-08T12:09:42;8.40;99.90
74822;DHT22;63353;48.702;8.884;2024-03-08T12:12:12;8.30;99.90
74822;DHT22;63353;48.702;8.884;2024-03-08T12:14:38;8.20;99.90
74822;DHT22;63353;48.702;8.884;2024-03-08T12:17:04;8.60;99.90
74822;DHT22;63353;48.702;8.884;2024-03-08T12:19:31;8.80;99.90
74822;DHT22;63353;48.702;8.884;2024-03-08T12:22:07;9.20;99.90
74822;DHT22;63353;48.702;8.884;2024-03-08T12:24:34;9.50;99.90
74822;DHT22;63353;48.702;8.884;2024-03-08T12:26:59;9.40;99.90
74822;DHT22;63353;48.702;8.884;2024-03-08T12:29:25;9.80;99.90
74822;DHT22;63353;48.702;8.884;2024-03-08T12:31:54;10.30;99.90
74822;DHT22;63353;48.702;8.884;2024-03-08T12:34:21;10.40;99.90
74822;DHT22;63353;48.702;8.884;2024-03-08T12:36:48;10.30;99.90
74822;DHT22;63353;48.702;8.884;2024-03-08T12:39:18;9.80;99.90
74822;DHT22;63353;48.702;8.884;2024-03-08T12:41:51;9.80;99.90
74822;DHT22;63353;48.702;8.884;2024-03-08T12:44:20;10.30;99.90
74822;DHT22;63353;48.702;8.884;2024-03-08T12:46:47;10.70;99.90
74822;DHT22;63353;48.702;8.884;2024-03-08T12:49:13;10.60;99.90
74822;DHT22;63353;48.702;8.884;2024-03-08T12:51:45;10.60;99.90
74822;DHT22;63353;48.702;8.884;2024-03-08T12:54:11;10.80;99.90
74822;DHT22;63353;48.702;8.884;2024-03-08T12:56:38;10.80;99.90
74822;DHT22;63353;48.702;8.884;2024-03-08T12:59:04;11.00;99.90
74822;DHT22;63353;48.702;8.884;2024-03-08T13:01:31;10.90;99.90
74822;DHT22;63353;48.702;8.884;2024-03-08T13:03:59;10.80;99.90
74822;DHT22;63353;48.702;8.884;2024-03-08T13:06:30;11.10;99.90
74822;DHT22;63353;48.702;8.884;2024-03-08T13:08:57;11.50;99.90
74822;DHT22;63353;48.702;8.884;2024-03-08T13:11:25;11.80;99.90
74822;DHT22;63353;48.702;8.884;2024-03-08T13:13:52;11.90;99.90
74822;DHT22;63353;48.702;8.884;2024-03-08T13:16:19;11.70;99.90
74822;DHT22;63353;48.702;8.884;2024-03-08T13:18:49;11.90;99.90
74822;DHT22;63353;48.702;8.884;2024-03-08T13:21:15;11.70;99.90
74822;DHT22;63353;48.702;8.884;2024-03-08T13:23:45;12.00;99.90
74822;DHT22;63353;48.702;8.884;2024-03-08T13:26:14;12.50;99.90
74822;DHT22;63353;48.702;8.884;2024-03-08T13:28:50;12.70;99.90
74822;DHT22;63353;48.702;8.884;2024-03-08T13:31:22;13.20;99.90
74822;DHT22;63353;48.702;8.884;2024-03-08T13:33:49;13.40;99.90
74822;DHT22;63353;48.702;8.884;2024-03-08T13:36:17;13.80;99.90
74822;DHT22;63353;48.702;8.884;2024-03-08T13:38:48;14.20;99.90
74822;DHT22;63353;48.702;8.884;2024-03-08T13:41:15;14.00;99.90
74822;DHT22;63353;48.702;8.884;2024-03-08T13:43:42;14.30;99.90
74822;DHT22;63353;48.702;8.884;2024-03-08T13:46:08;14.60;99.90
74822;DHT22;63353;48.702;8.884;2024-03-08T13:48:36;14.90;99.90
74822;DHT22;63353;48.702;8.884;2024-03-08T13:51:06;15.80;99.90
74822;DHT22;63353;48.702;8.884;2024-03-08T13:53:33;16.50;99.90
74822;DHT22;63353;48.702;8.884;2024-03-08T13:56:01;16.80;99.90
74822;DHT22;63353;48.702;8.884;2024-03-08T13:58:27;17.10;99.90
74822;DHT22;63353;48.702;8.884;2024-03-08T14:00:53;17.20;99.90
74822;DHT22;63353;48.702;8.884;2024-03-08T14:03:19;17.30;99.90
74822;DHT22;63353;48.702;8.884;2024-03-08T14:05:46;17.80;99.90
74822;DHT22;63353;48.702;8.884;2024-03-08T14:08:12;17.80;99.90
74822;DHT22;63353;48.702;8.884;2024-03-08T14:10:38;17.50;99.90
74822;DHT22;63353;48.702;8.884;2024-03-08T14:13:04;17.30;99.90
74822;DHT22;63353;48.702;8.884;2024-03-08T14:15:34;17.10;99.90
74822;DHT22;63353;48.702;8.884;2024-03-08T14:18:00;17.30;99.90
74822;DHT22;63353;48.702;8.884;2024-03-08T14:20:27;17.30;99.90
74822;DHT22;63353;48.702;8.884;2024-03-08T14:22:56;17.30;99.90
74822;DHT22;63353;48.702;8.884;2024-03-08T14:25:22;17.70;99.90
74822;DHT22;63353;48.702;8.884;2024-03-08T14:27:50;17.30;99.90
74822;DHT22;63353;48.702;8.884;2024-03-08T14:30:19;18.00;99.90
74822;DHT22;63353;48.702;8.884;2024-03-08T14:33:05;18.40;99.90
74822;DHT22;63353;48.702;8.884;2024-03-08T14:35:31;18.80;99.90
74822;DHT22;63353;48.702;8.884;2024-03-08T14:37:57;18.80;99.90
74822;DHT22;63353;48.702;8.884;2024-03-08T14:40:24;18.20;99.90
74822;DHT22;63353;48.702;8.884;2024-03-08T14:42:50;17.80;99.90
74822;DHT22;63353;48.702;8.884;2024-03-08T14:45:19;18.10;99.90
74822;DHT22;63353;48.702;8.884;2024-03-08T14:47:48;18.00;99.90
74822;DHT22;63353;48.702;8.884;2024-03-08T14:50:18;18.10;99.90
74822;DHT22;63353;48.702;8.884;2024-03-08T14:52:44;18.20;99.90
74822;DHT22;63353;48.702;8.884;2024-03-08T14:55:20;18.30;99.90
74822;DHT22;63353;48.702;8.884;2024-03-08T14:57:51;18.50;99.90
74822;DHT22;63353;48.702;8.884;2024-03-08T15:00:18;19.00;99.90
74822;DHT22;63353;48.702;8.884;2024-03-08T15:02:56;19.30;99.90
74822;DHT22;63353;48.702;8.884;2024-03-08T15:05:24;19.50;99.90
74822;DHT22;63353;48.702;8.884;2024-03-08T15:07:54;19.30;99.90
74822;DHT22;63353;48.702;8.884;2024-03-08T15:10:22;18.50;99.90
74822;DHT22;63353;48.702;8.884;2024-03-08T15:12:51;18.50;99.90
74822;DHT22;63353;48.702;8.884;2024-03-08T15:15:21;18.70;99.90
74822;DHT22;63353;48.702;8.884;2024-03-08T15:17:48;18.90;99.90
74822;DHT22;63353;48.702;8.884;2024-03-08T15:20:14;18.90;99.90
74822;DHT22;63353;48.702;8.884;2024-03-08T15:22:43;19.10;99.90
74822;DHT22;63353;48.702;8.884;2024-03-08T15:25:10;18.90;99.90
74822;DHT22;63353;48.702;8.884;2024-03-08T15:27:38;18.70;99.90
74822;DHT22;63353;48.702;8.884;2024-03-08T15:30:05;18.40;99.90
74822;DHT22;63353;48.702;8.884;2024-03-08T15:32:33;18.30;99.90
74822;DHT22;63353;48.702;8.884;2024-03-08T15:34:59;19.10;99.90
74822;DHT22;63353;48.702;8.884;2024-03-08T15:37:24;19.20;99.90
74822;DHT22;63353;48.702;8.884;2024-03-08T15:39:51;19.30;99.90
74822;DHT22;63353;48.702;8.884;2024-03-08T15:42:16;19.50;99.90
74822;DHT22;63353;48.702;8.884;2024-03-08T15:44:42;19.60;99.90
74822;DHT22;63353;48.702;8.884;2024-03-08T15:47:08;19.80;99.90
74822;DHT22;63353;48.702;8.884;2024-03-08T15:49:37;19.30;99.90
74822;DHT22;63353;48.702;8.884;2024-03-08T15:52:03;19.20;99.90
74822;DHT22;63353;48.702;8.884;2024-03-08T15:54:31;19.00;99.90